sensor_id;sensor_type;location;lat;lon;timestamp;temperature;humidity
9375;DHT22;4727;51.202;6.344;2022-09-09T00:02:27;15.10;99.90
9375;DHT22;4727;51.202;6.344;2022-09-09T00:05:00;15.10;99.90
9375;DHT22;4727;51.202;6.344;2022-09-09T00:07:51;15.10;99.90
9375;DHT22;4727;51.202;6.344;2022-09-09T00:21:01;14.90;99.90
9375;DHT22;4727;51.202;6.344;2022-09-09T00:23:30;14.90;99.90
9375;DHT22;4727;51.202;6.344;2022-09-09T00:31:28;14.80;99.90
9375;DHT22;4727;51.202;6.344;2022-09-09T00:33:56;14.90;99.90
9375;DHT22;4727;51.202;6.344;2022-09-09T00:36:25;14.90;99.90
9375;DHT22;4727;51.202;6.344;2022-09-09T00:38:56;14.90;99.90
9375;DHT22;4727;51.202;6.344;2022-09-09T00:50:17;14.80;99.90
9375;DHT22;4727;51.202;6.344;2022-09-09T00:53:11;14.80;99.90
9375;DHT22;4727;51.202;6.344;2022-09-09T00:58:15;14.80;99.90
9375;DHT22;4727;51.202;6.344;2022-09-09T01:00:44;14.80;99.90
9375;DHT22;4727;51.202;6.344;2022-09-09T01:03:30;14.70;99.90
9375;DHT22;4727;51.202;6.344;2022-09-09T01:06:15;14.70;99.90
9375;DHT22;4727;51.202;6.344;2022-09-09T01:11:31;14.80;99.90
9375;DHT22;4727;51.202;6.344;2022-09-09T01:17:12;14.90;99.90
9375;DHT22;4727;51.202;6.344;2022-09-09T01:22:34;14.90;99.90
9375;DHT22;4727;51.202;6.344;2022-09-09T01:27:55;14.90;99.90
9375;DHT22;4727;51.202;6.344;2022-09-09T01:30:22;14.90;99.90
9375;DHT22;4727;51.202;6.344;2022-09-09T01:32:52;14.90;99.90
9375;DHT22;4727;51.202;6.344;2022-09-09T01:37:46;15.00;99.90
9375;DHT22;4727;51.202;6.344;2022-09-09T01:40:12;15.00;99.90
9375;DHT22;4727;51.202;6.344;2022-09-09T01:42:38;15.10;99.90
9375;DHT22;4727;51.202;6.344;2022-09-09T01:45:04;15.10;99.90
9375;DHT22;4727;51.202;6.344;2022-09-09T01:47:30;15.00;99.90
9375;DHT22;4727;51.202;6.344;2022-09-09T01:49:55;14.90;99.90
9375;DHT22;4727;51.202;6.344;2022-09-09T01:52:21;14.90;99.90
9375;DHT22;4727;51.202;6.344;2022-09-09T01:54:47;14.90;99.90
9375;DHT22;4727;51.202;6.344;2022-09-09T01:57:24;14.80;99.90
9375;DHT22;4727;51.202;6.344;2022-09-09T02:00:10;14.80;99.90
9375;DHT22;4727;51.202;6.344;2022-09-09T02:05:39;14.70;99.90
9375;DHT22;4727;51.202;6.344;2022-09-09T02:08:08;14.70;99.90
9375;DHT22;4727;51.202;6.344;2022-09-09T02:10:39;14.80;99.90
9375;DHT22;4727;51.202;6.344;2022-09-09T02:13:10;14.70;99.90
9375;DHT22;4727;51.202;6.344;2022-09-09T02:15:43;14.70;99.90
9375;DHT22;4727;51.202;6.344;2022-09-09T02:18:13;14.70;99.90
9375;DHT22;4727;51.202;6.344;2022-09-09T02:20:41;14.70;99.90
9375;DHT22;4727;51.202;6.344;2022-09-09T02:23:08;14.70;99.90
9375;DHT22;4727;51.202;6.344;2022-09-09T02:25:36;14.70;99.90
9375;DHT22;4727;51.202;6.344;2022-09-09T02:28:04;14.80;99.90
9375;DHT22;4727;51.202;6.344;2022-09-09T02:30:32;14.80;99.90
9375;DHT22;4727;51.202;6.344;2022-09-09T02:33:01;14.80;99.90
9375;DHT22;4727;51.202;6.344;2022-09-09T02:35:28;14.70;99.90
9375;DHT22;4727;51.202;6.344;2022-09-09T02:37:58;14.90;99.90
9375;DHT22;4727;51.202;6.344;2022-09-09T02:40:25;14.80;99.90
9375;DHT22;4727;51.202;6.344;2022-09-09T02:42:50;14.80;99.90
9375;DHT22;4727;51.202;6.344;2022-09-09T02:45:21;14.80;99.90
9375;DHT22;4727;51.202;6.344;2022-09-09T02:50:43;14.80;99.90
9375;DHT22;4727;51.202;6.344;2022-09-09T02:53:17;14.80;99.90
9375;DHT22;4727;51.202;6.344;2022-09-09T02:56:04;14.80;99.90
9375;DHT22;4727;51.202;6.344;2022-09-09T02:58:32;14.80;99.90
9375;DHT22;4727;51.202;6.344;2022-09-09T03:00:58;14.70;99.90
9375;DHT22;4727;51.202;6.344;2022-09-09T03:03:26;14.80;99.90
9375;DHT22;4727;51.202;6.344;2022-09-09T03:05:52;14.70;99.90
9375;DHT22;4727;51.202;6.344;2022-09-09T03:08:18;14.70;99.90
9375;DHT22;4727;51.202;6.344;2022-09-09T03:10:43;14.70;99.90
9375;DHT22;4727;51.202;6.344;2022-09-09T03:13:09;14.70;99.90
9375;DHT22;4727;51.202;6.344;2022-09-09T03:15:38;14.70;99.90
9375;DHT22;4727;51.202;6.344;2022-09-09T03:18:03;14.70;99.90
9375;DHT22;4727;51.202;6.344;2022-09-09T03:20:30;14.70;99.90
9375;DHT22;4727;51.202;6.344;2022-09-09T03:22:56;14.70;99.90
9375;DHT22;4727;51.202;6.344;2022-09-09T03:25:22;14.70;99.90
9375;DHT22;4727;51.202;6.344;2022-09-09T03:27:53;14.70;99.90
9375;DHT22;4727;51.202;6.344;2022-09-09T03:30:24;14.70;99.90
9375;DHT22;4727;51.202;6.344;2022-09-09T03:32:50;14.60;99.90
9375;DHT22;4727;51.202;6.344;2022-09-09T03:35:16;14.60;99.90
9375;DHT22;4727;51.202;6.344;2022-09-09T03:37:42;14.60;99.90
9375;DHT22;4727;51.202;6.344;2022-09-09T03:40:08;14.70;99.90
9375;DHT22;4727;51.202;6.344;2022-09-09T03:42:35;14.60;99.90
9375;DHT22;4727;51.202;6.344;2022-09-09T03:45:03;14.70;99.90
9375;DHT22;4727;51.202;6.344;2022-09-09T03:47:29;14.70;99.90
9375;DHT22;4727;51.202;6.344;2022-09-09T03:49:55;14.70;99.90
9375;DHT22;4727;51.202;6.344;2022-09-09T03:52:20;14.70;99.90
9375;DHT22;4727;51.202;6.344;2022-09-09T03:54:47;14.80;99.90
9375;DHT22;4727;51.202;6.344;2022-09-09T03:57:13;14.80;99.90
9375;DHT22;4727;51.202;6.344;2022-09-09T03:59:42;14.80;99.90
9375;DHT22;4727;51.202;6.344;2022-09-09T04:02:07;14.80;99.90
9375;DHT22;4727;51.202;6.344;2022-09-09T04:04:34;14.80;99.90
9375;DHT22;4727;51.202;6.344;2022-09-09T04:07:00;14.80;99.90
9375;DHT22;4727;51.202;6.344;2022-09-09T04:09:26;14.90;99.90
9375;DHT22;4727;51.202;6.344;2022-09-09T04:11:51;14.90;99.90
9375;DHT22;4727;51.202;6.344;2022-09-09T04:14:18;15.00;99.90
9375;DHT22;4727;51.202;6.344;2022-09-09T04:16:44;15.00;99.90
9375;DHT22;4727;51.202;6.344;2022-09-09T04:19:10;15.10;99.90
9375;DHT22;4727;51.202;6.344;2022-09-09T04:21:38;15.10;99.90
9375;DHT22;4727;51.202;6.344;2022-09-09T04:24:06;15.10;99.90
9375;DHT22;4727;51.202;6.344;2022-09-09T04:26:32;15.20;99.90
9375;DHT22;4727;51.202;6.344;2022-09-09T04:28:58;15.20;99.90
9375;DHT22;4727;51.202;6.344;2022-09-09T04:31:24;15.20;99.90
9375;DHT22;4727;51.202;6.344;2022-09-09T04:33:50;15.20;99.90
9375;DHT22;4727;51.202;6.344;2022-09-09T04:36:16;15.20;99.90
9375;DHT22;4727;51.202;6.344;2022-09-09T04:38:43;15.20;99.90
9375;DHT22;4727;51.202;6.344;2022-09-09T04:41:09;15.30;99.90
9375;DHT22;4727;51.202;6.344;2022-09-09T04:43:37;15.20;99.90
9375;DHT22;4727;51.202;6.344;2022-09-09T04:46:03;15.30;99.90
9375;DHT22;4727;51.202;6.344;2022-09-09T04:48:28;15.30;99.90
9375;DHT22;4727;51.202;6.344;2022-09-09T04:51:03;15.30;99.90
9375;DHT22;4727;51.202;6.344;2022-09-09T04:53:30;15.30;99.90
9375;DHT22;4727;51.202;6.344;2022-09-09T04:56:04;15.40;99.90
9375;DHT22;4727;51.202;6.344;2022-09-09T04:58:30;15.40;99.90
9375;DHT22;4727;51.202;6.344;2022-09-09T05:01:06;15.40;99.90
9375;DHT22;4727;51.202;6.344;2022-09-09T05:03:32;15.40;99.90
9375;DHT22;4727;51.202;6.344;2022-09-09T05:06:24;15.30;99.90
9375;DHT22;4727;51.202;6.344;2022-09-09T05:08:49;15.40;99.90
9375;DHT22;4727;51.202;6.344;2022-09-09T05:11:22;15.40;99.90
9375;DHT22;4727;51.202;6.344;2022-09-09T05:13:51;15.40;99.90
9375;DHT22;4727;51.202;6.344;2022-09-09T05:16:18;15.40;99.90
9375;DHT22;4727;51.202;6.344;2022-09-09T05:18:45;15.40;99.90
9375;DHT22;4727;51.202;6.344;2022-09-09T05:21:15;15.40;99.90
9375;DHT22;4727;51.202;6.344;2022-09-09T05:23:41;15.40;99.90
9375;DHT22;4727;51.202;6.344;2022-09-09T05:26:11;15.40;99.90
9375;DHT22;4727;51.202;6.344;2022-09-09T05:28:37;15.40;99.90
9375;DHT22;4727;51.202;6.344;2022-09-09T05:31:05;15.30;99.90
9375;DHT22;4727;51.202;6.344;2022-09-09T05:33:33;15.40;99.90
9375;DHT22;4727;51.202;6.344;2022-09-09T05:36:07;15.40;99.90
9375;DHT22;4727;51.202;6.344;2022-09-09T05:38:34;15.40;99.90
9375;DHT22;4727;51.202;6.344;2022-09-09T05:41:01;15.40;99.90
9375;DHT22;4727;51.202;6.344;2022-09-09T05:43:28;15.40;99.90
9375;DHT22;4727;51.202;6.344;2022-09-09T05:46:08;15.40;99.90
9375;DHT22;4727;51.202;6.344;2022-09-09T05:48:36;15.40;99.90
9375;DHT22;4727;51.202;6.344;2022-09-09T05:51:03;15.50;99.90
9375;DHT22;4727;51.202;6.344;2022-09-09T05:53:30;15.50;99.90
9375;DHT22;4727;51.202;6.344;2022-09-09T05:56:17;15.50;99.90
9375;DHT22;4727;51.202;6.344;2022-09-09T05:58:43;15.50;99.90
9375;DHT22;4727;51.202;6.344;2022-09-09T06:01:15;15.50;99.90
9375;DHT22;4727;51.202;6.344;2022-09-09T06:03:42;15.50;99.90
9375;DHT22;4727;51.202;6.344;2022-09-09T06:06:16;15.50;99.90
9375;DHT22;4727;51.202;6.344;2022-09-09T06:08:44;15.50;99.90
9375;DHT22;4727;51.202;6.344;2022-09-09T06:11:16;15.50;99.90
9375;DHT22;4727;51.202;6.344;2022-09-09T06:13:42;15.50;99.90
9375;DHT22;4727;51.202;6.344;2022-09-09T06:16:13;15.50;99.90
9375;DHT22;4727;51.202;6.344;2022-09-09T06:18:40;15.50;99.90
9375;DHT22;4727;51.202;6.344;2022-09-09T06:21:07;15.60;99.90
9375;DHT22;4727;51.202;6.344;2022-09-09T06:23:34;15.60;99.90
9375;DHT22;4727;51.202;6.344;2022-09-09T06:26:17;15.60;99.90
9375;DHT22;4727;51.202;6.344;2022-09-09T06:28:43;15.60;99.90
9375;DHT22;4727;51.202;6.344;2022-09-09T06:31:12;15.70;99.90
9375;DHT22;4727;51.202;6.344;2022-09-09T06:33:40;15.80;99.90
9375;DHT22;4727;51.202;6.344;2022-09-09T06:36:15;15.70;99.90
9375;DHT22;4727;51.202;6.344;2022-09-09T06:38:44;15.70;99.90
9375;DHT22;4727;51.202;6.344;2022-09-09T06:41:11;15.80;99.90
9375;DHT22;4727;51.202;6.344;2022-09-09T06:43:37;15.80;99.90
9375;DHT22;4727;51.202;6.344;2022-09-09T06:46:12;15.70;99.90
9375;DHT22;4727;51.202;6.344;2022-09-09T06:48:41;15.70;99.90
9375;DHT22;4727;51.202;6.344;2022-09-09T06:51:09;15.70;99.90
9375;DHT22;4727;51.202;6.344;2022-09-09T06:53:37;15.70;99.90
9375;DHT22;4727;51.202;6.344;2022-09-09T06:56:24;15.70;99.90
9375;DHT22;4727;51.202;6.344;2022-09-09T06:58:52;15.70;99.90
9375;DHT22;4727;51.202;6.344;2022-09-09T07:01:20;15.60;99.90
9375;DHT22;4727;51.202;6.344;2022-09-09T07:03:50;15.60;99.90
9375;DHT22;4727;51.202;6.344;2022-09-09T07:06:25;15.70;99.90
9375;DHT22;4727;51.202;6.344;2022-09-09T07:08:52;15.70;99.90
9375;DHT22;4727;51.202;6.344;2022-09-09T07:11:19;15.70;99.90
9375;DHT22;4727;51.202;6.344;2022-09-09T07:13:46;15.80;99.90
9375;DHT22;4727;51.202;6.344;2022-09-09T07:16:14;15.90;99.90
9375;DHT22;4727;51.202;6.344;2022-09-09T07:18:40;16.00;99.90
9375;DHT22;4727;51.202;6.344;2022-09-09T07:21:07;16.20;99.90
9375;DHT22;4727;51.202;6.344;2022-09-09T07:23:33;16.20;93.70
9375;DHT22;4727;51.202;6.344;2022-09-09T07:26:02;16.30;42.20
9375;DHT22;4727;51.202;6.344;2022-09-09T07:28:27;16.40;78.10
9375;DHT22;4727;51.202;6.344;2022-09-09T07:31:01;16.40;73.30
9375;DHT22;4727;51.202;6.344;2022-09-09T07:33:28;16.50;77.00
9375;DHT22;4727;51.202;6.344;2022-09-09T07:36:05;16.50;59.80
9375;DHT22;4727;51.202;6.344;2022-09-09T07:38:36;16.50;99.90
9375;DHT22;4727;51.202;6.344;2022-09-09T07:41:07;16.50;1.00
9375;DHT22;4727;51.202;6.344;2022-09-09T07:43:38;16.70;51.30
9375;DHT22;4727;51.202;6.344;2022-09-09T07:46:04;16.70;35.50
9375;DHT22;4727;51.202;6.344;2022-09-09T07:48:29;16.70;1.00
9375;DHT22;4727;51.202;6.344;2022-09-09T07:51:07;16.60;13.10
9375;DHT22;4727;51.202;6.344;2022-09-09T07:53:33;16.70;1.00
9375;DHT22;4727;51.202;6.344;2022-09-09T07:56:04;16.70;1.00
9375;DHT22;4727;51.202;6.344;2022-09-09T07:58:30;16.90;1.00
9375;DHT22;4727;51.202;6.344;2022-09-09T08:00:56;17.00;3.50
9375;DHT22;4727;51.202;6.344;2022-09-09T08:03:22;17.00;1.00
9375;DHT22;4727;51.202;6.344;2022-09-09T08:05:49;17.10;1.00
9375;DHT22;4727;51.202;6.344;2022-09-09T08:08:15;17.10;1.00
9375;DHT22;4727;51.202;6.344;2022-09-09T08:10:42;17.10;1.00
9375;DHT22;4727;51.202;6.344;2022-09-09T08:13:08;17.10;1.00
9375;DHT22;4727;51.202;6.344;2022-09-09T08:15:34;17.20;1.00
9375;DHT22;4727;51.202;6.344;2022-09-09T08:18:00;17.30;1.00
9375;DHT22;4727;51.202;6.344;2022-09-09T08:20:25;17.40;1.00
9375;DHT22;4727;51.202;6.344;2022-09-09T08:22:51;17.50;1.00
9375;DHT22;4727;51.202;6.344;2022-09-09T08:25:16;17.60;1.00
9375;DHT22;4727;51.202;6.344;2022-09-09T08:27:42;17.70;1.00
9375;DHT22;4727;51.202;6.344;2022-09-09T08:30:08;17.80;1.00
9375;DHT22;4727;51.202;6.344;2022-09-09T08:32:34;17.70;99.90
9375;DHT22;4727;51.202;6.344;2022-09-09T08:35:00;17.80;99.90
9375;DHT22;4727;51.202;6.344;2022-09-09T08:37:26;17.80;1.00
9375;DHT22;4727;51.202;6.344;2022-09-09T08:39:51;17.80;99.90
9375;DHT22;4727;51.202;6.344;2022-09-09T08:45:12;17.80;99.90
9375;DHT22;4727;51.202;6.344;2022-09-09T08:48:08;17.80;99.90
9375;DHT22;4727;51.202;6.344;2022-09-09T08:50:39;17.80;99.90
9375;DHT22;4727;51.202;6.344;2022-09-09T08:53:19;17.70;99.90
9375;DHT22;4727;51.202;6.344;2022-09-09T08:55:56;17.60;99.90
9375;DHT22;4727;51.202;6.344;2022-09-09T08:58:27;17.60;99.90
9375;DHT22;4727;51.202;6.344;2022-09-09T09:06:40;17.80;1.00
9375;DHT22;4727;51.202;6.344;2022-09-09T09:14:18;17.90;1.00
9375;DHT22;4727;51.202;6.344;2022-09-09T09:17:05;17.90;1.00
9375;DHT22;4727;51.202;6.344;2022-09-09T09:19:33;18.00;1.00
9375;DHT22;4727;51.202;6.344;2022-09-09T09:22:20;18.10;99.90
9375;DHT22;4727;51.202;6.344;2022-09-09T09:27:58;18.40;1.00
9375;DHT22;4727;51.202;6.344;2022-09-09T09:30:31;18.60;1.00
9375;DHT22;4727;51.202;6.344;2022-09-09T09:33:11;18.70;1.00
9375;DHT22;4727;51.202;6.344;2022-09-09T09:35:40;18.80;1.00
9375;DHT22;4727;51.202;6.344;2022-09-09T09:38:17;18.70;1.00
9375;DHT22;4727;51.202;6.344;2022-09-09T09:40:54;18.70;1.00
9375;DHT22;4727;51.202;6.344;2022-09-09T09:43:33;18.70;1.00
9375;DHT22;4727;51.202;6.344;2022-09-09T09:45:59;18.70;99.90
9375;DHT22;4727;51.202;6.344;2022-09-09T09:48:26;18.70;1.00
9375;DHT22;4727;51.202;6.344;2022-09-09T09:50:55;18.70;99.90
9375;DHT22;4727;51.202;6.344;2022-09-09T09:53:29;18.60;1.00
9375;DHT22;4727;51.202;6.344;2022-09-09T09:56:00;18.70;1.00
9375;DHT22;4727;51.202;6.344;2022-09-09T09:58:29;18.60;99.90
9375;DHT22;4727;51.202;6.344;2022-09-09T10:00:57;18.50;1.00
9375;DHT22;4727;51.202;6.344;2022-09-09T10:03:29;18.50;1.00
9375;DHT22;4727;51.202;6.344;2022-09-09T10:05:55;18.50;1.00
9375;DHT22;4727;51.202;6.344;2022-09-09T10:08:25;18.60;1.00
9375;DHT22;4727;51.202;6.344;2022-09-09T10:14:02;18.70;1.00
9375;DHT22;4727;51.202;6.344;2022-09-09T10:27:33;18.90;1.00
9375;DHT22;4727;51.202;6.344;2022-09-09T10:30:19;18.90;1.00
9375;DHT22;4727;51.202;6.344;2022-09-09T10:35:34;18.80;1.00
9375;DHT22;4727;51.202;6.344;2022-09-09T10:40:46;18.70;1.00
9375;DHT22;4727;51.202;6.344;2022-09-09T10:48:48;18.90;1.00
9375;DHT22;4727;51.202;6.344;2022-09-09T10:51:44;19.00;1.00
9375;DHT22;4727;51.202;6.344;2022-09-09T10:54:23;18.90;1.00
9375;DHT22;4727;51.202;6.344;2022-09-09T10:57:02;19.00;1.00
9375;DHT22;4727;51.202;6.344;2022-09-09T10:59:33;19.00;1.00
9375;DHT22;4727;51.202;6.344;2022-09-09T11:04:42;18.90;1.00
9375;DHT22;4727;51.202;6.344;2022-09-09T11:07:16;18.90;1.00
9375;DHT22;4727;51.202;6.344;2022-09-09T11:09:52;19.00;1.00
9375;DHT22;4727;51.202;6.344;2022-09-09T11:12:23;19.10;1.00
9375;DHT22;4727;51.202;6.344;2022-09-09T11:15:13;19.30;1.00
9375;DHT22;4727;51.202;6.344;2022-09-09T11:17:48;19.30;1.00
9375;DHT22;4727;51.202;6.344;2022-09-09T11:20:15;19.20;1.00
9375;DHT22;4727;51.202;6.344;2022-09-09T11:22:48;19.20;1.00
9375;DHT22;4727;51.202;6.344;2022-09-09T11:28:31;19.20;1.00
9375;DHT22;4727;51.202;6.344;2022-09-09T11:44:39;19.10;1.00
9375;DHT22;4727;51.202;6.344;2022-09-09T11:47:20;19.20;1.00
9375;DHT22;4727;51.202;6.344;2022-09-09T11:49:48;19.00;1.00
9375;DHT22;4727;51.202;6.344;2022-09-09T11:52:25;18.90;1.00
9375;DHT22;4727;51.202;6.344;2022-09-09T11:55:20;18.70;1.00
9375;DHT22;4727;51.202;6.344;2022-09-09T11:58:00;18.40;1.00
9375;DHT22;4727;51.202;6.344;2022-09-09T12:00:36;18.30;99.90
9375;DHT22;4727;51.202;6.344;2022-09-09T12:03:03;18.30;99.90
9375;DHT22;4727;51.202;6.344;2022-09-09T12:05:42;18.30;99.90
9375;DHT22;4727;51.202;6.344;2022-09-09T12:08:16;18.20;99.90
9375;DHT22;4727;51.202;6.344;2022-09-09T12:10:54;18.10;99.90
9375;DHT22;4727;51.202;6.344;2022-09-09T12:13:26;18.20;99.90
9375;DHT22;4727;51.202;6.344;2022-09-09T12:15:54;18.20;99.90
9375;DHT22;4727;51.202;6.344;2022-09-09T12:18:39;18.30;99.90
9375;DHT22;4727;51.202;6.344;2022-09-09T12:24:13;18.00;99.90
9375;DHT22;4727;51.202;6.344;2022-09-09T12:26:52;18.00;99.90
9375;DHT22;4727;51.202;6.344;2022-09-09T12:32:08;18.00;99.90
9375;DHT22;4727;51.202;6.344;2022-09-09T12:34:46;18.00;99.90
9375;DHT22;4727;51.202;6.344;2022-09-09T12:40:53;18.00;99.90
9375;DHT22;4727;51.202;6.344;2022-09-09T12:42:51;18.00;99.90
9375;DHT22;4727;51.202;6.344;2022-09-09T12:45:22;18.00;99.90
9375;DHT22;4727;51.202;6.344;2022-09-09T12:48:08;18.00;99.90
9375;DHT22;4727;51.202;6.344;2022-09-09T12:50:54;18.00;99.90
9375;DHT22;4727;51.202;6.344;2022-09-09T12:53:25;18.10;99.90
9375;DHT22;4727;51.202;6.344;2022-09-09T12:56:19;18.10;99.90
9375;DHT22;4727;51.202;6.344;2022-09-09T12:58:47;18.10;99.90
9375;DHT22;4727;51.202;6.344;2022-09-09T13:03:48;18.40;99.90
9375;DHT22;4727;51.202;6.344;2022-09-09T13:06:20;18.60;99.90
9375;DHT22;4727;51.202;6.344;2022-09-09T13:08:46;18.90;99.90
9375;DHT22;4727;51.202;6.344;2022-09-09T13:11:26;19.10;99.90
9375;DHT22;4727;51.202;6.344;2022-09-09T13:14:00;19.20;99.90
9375;DHT22;4727;51.202;6.344;2022-09-09T13:16:31;19.40;99.90
9375;DHT22;4727;51.202;6.344;2022-09-09T13:19:14;19.60;99.90
9375;DHT22;4727;51.202;6.344;2022-09-09T13:21:41;20.00;88.80
9375;DHT22;4727;51.202;6.344;2022-09-09T13:24:33;20.00;17.20
9375;DHT22;4727;51.202;6.344;2022-09-09T13:27:02;19.90;1.00
9375;DHT22;4727;51.202;6.344;2022-09-09T13:29:29;19.70;25.00
9375;DHT22;4727;51.202;6.344;2022-09-09T13:32:04;19.50;23.90
9375;DHT22;4727;51.202;6.344;2022-09-09T13:34:33;19.50;99.90
9375;DHT22;4727;51.202;6.344;2022-09-09T13:37:07;19.30;99.90
9375;DHT22;4727;51.202;6.344;2022-09-09T13:39:51;19.20;99.90
9375;DHT22;4727;51.202;6.344;2022-09-09T13:42:28;19.20;99.90
9375;DHT22;4727;51.202;6.344;2022-09-09T13:44:56;19.10;99.90
9375;DHT22;4727;51.202;6.344;2022-09-09T13:47:35;19.00;99.90
9375;DHT22;4727;51.202;6.344;2022-09-09T13:52:52;18.80;99.90
9375;DHT22;4727;51.202;6.344;2022-09-09T13:55:20;18.20;99.90
9375;DHT22;4727;51.202;6.344;2022-09-09T13:57:57;17.10;99.90
9375;DHT22;4727;51.202;6.344;2022-09-09T14:00:24;16.50;99.90
9375;DHT22;4727;51.202;6.344;2022-09-09T14:02:51;16.40;99.90
9375;DHT22;4727;51.202;6.344;2022-09-09T14:05:19;16.20;99.90
9375;DHT22;4727;51.202;6.344;2022-09-09T14:07:46;16.00;99.90
9375;DHT22;4727;51.202;6.344;2022-09-09T14:10:12;16.10;99.90
9375;DHT22;4727;51.202;6.344;2022-09-09T14:12:37;16.10;99.90
9375;DHT22;4727;51.202;6.344;2022-09-09T14:15:04;16.00;99.90
9375;DHT22;4727;51.202;6.344;2022-09-09T14:17:30;15.90;99.90
9375;DHT22;4727;51.202;6.344;2022-09-09T14:19:57;15.90;99.90
9375;DHT22;4727;51.202;6.344;2022-09-09T14:22:23;15.80;99.90
9375;DHT22;4727;51.202;6.344;2022-09-09T14:24:49;15.80;99.90
9375;DHT22;4727;51.202;6.344;2022-09-09T14:27:15;15.60;99.90
9375;DHT22;4727;51.202;6.344;2022-09-09T14:29:41;15.70;99.90
9375;DHT22;4727;51.202;6.344;2022-09-09T14:32:09;15.70;99.90
9375;DHT22;4727;51.202;6.344;2022-09-09T14:34:34;15.70;99.90
9375;DHT22;4727;51.202;6.344;2022-09-09T14:37:01;15.70;99.90
9375;DHT22;4727;51.202;6.344;2022-09-09T14:39:26;15.80;99.90
9375;DHT22;4727;51.202;6.344;2022-09-09T14:41:52;15.90;99.90
9375;DHT22;4727;51.202;6.344;2022-09-09T14:44:18;15.90;99.90
9375;DHT22;4727;51.202;6.344;2022-09-09T14:46:44;16.00;99.90
9375;DHT22;4727;51.202;6.344;2022-09-09T14:49:10;16.10;99.90
9375;DHT22;4727;51.202;6.344;2022-09-09T14:51:36;16.20;99.90
9375;DHT22;4727;51.202;6.344;2022-09-09T14:54:02;16.30;99.90
9375;DHT22;4727;51.202;6.344;2022-09-09T14:56:31;16.60;99.90
9375;DHT22;4727;51.202;6.344;2022-09-09T14:58:58;16.80;99.90
9375;DHT22;4727;51.202;6.344;2022-09-09T15:01:26;17.00;99.90
9375;DHT22;4727;51.202;6.344;2022-09-09T15:03:57;17.40;99.90
9375;DHT22;4727;51.202;6.344;2022-09-09T15:06:28;17.70;99.90
9375;DHT22;4727;51.202;6.344;2022-09-09T15:08:55;17.90;99.90
9375;DHT22;4727;51.202;6.344;2022-09-09T15:11:25;18.00;99.90
9375;DHT22;4727;51.202;6.344;2022-09-09T15:13:53;17.90;99.90
9375;DHT22;4727;51.202;6.344;2022-09-09T15:16:21;17.90;99.90
9375;DHT22;4727;51.202;6.344;2022-09-09T15:18:49;18.20;99.90
9375;DHT22;4727;51.202;6.344;2022-09-09T15:21:20;18.40;99.90
9375;DHT22;4727;51.202;6.344;2022-09-09T15:23:47;18.60;99.90
9375;DHT22;4727;51.202;6.344;2022-09-09T15:26:16;18.70;99.90
9375;DHT22;4727;51.202;6.344;2022-09-09T15:28:44;18.80;99.90
9375;DHT22;4727;51.202;6.344;2022-09-09T15:31:18;19.00;99.90
9375;DHT22;4727;51.202;6.344;2022-09-09T15:33:48;19.10;99.90
9375;DHT22;4727;51.202;6.344;2022-09-09T15:36:22;19.40;99.90
9375;DHT22;4727;51.202;6.344;2022-09-09T15:38:49;19.50;99.90
9375;DHT22;4727;51.202;6.344;2022-09-09T15:41:15;19.50;99.90
9375;DHT22;4727;51.202;6.344;2022-09-09T15:43:46;19.40;99.90
9375;DHT22;4727;51.202;6.344;2022-09-09T15:46:31;19.40;99.90
9375;DHT22;4727;51.202;6.344;2022-09-09T15:49:15;19.50;99.90
9375;DHT22;4727;51.202;6.344;2022-09-09T15:51:47;19.40;99.90
9375;DHT22;4727;51.202;6.344;2022-09-09T15:54:16;19.50;99.90
9375;DHT22;4727;51.202;6.344;2022-09-09T15:56:46;19.30;99.90
9375;DHT22;4727;51.202;6.344;2022-09-09T15:59:14;19.10;99.90
9375;DHT22;4727;51.202;6.344;2022-09-09T16:01:40;19.10;99.90
9375;DHT22;4727;51.202;6.344;2022-09-09T16:04:07;19.30;99.90
9375;DHT22;4727;51.202;6.344;2022-09-09T16:06:34;19.30;99.90
9375;DHT22;4727;51.202;6.344;2022-09-09T16:09:00;19.40;99.90
9375;DHT22;4727;51.202;6.344;2022-09-09T16:11:30;19.40;99.90
9375;DHT22;4727;51.202;6.344;2022-09-09T16:13:57;19.30;99.90
9375;DHT22;4727;51.202;6.344;2022-09-09T16:16:26;19.40;99.90
9375;DHT22;4727;51.202;6.344;2022-09-09T16:18:55;19.20;99.90
9375;DHT22;4727;51.202;6.344;2022-09-09T16:21:29;19.30;99.90
9375;DHT22;4727;51.202;6.344;2022-09-09T16:23:55;19.10;99.90
9375;DHT22;4727;51.202;6.344;2022-09-09T16:26:21;19.10;99.90
9375;DHT22;4727;51.202;6.344;2022-09-09T16:28:48;19.00;99.90
9375;DHT22;4727;51.202;6.344;2022-09-09T16:31:19;18.90;99.90
9375;DHT22;4727;51.202;6.344;2022-09-09T16:33:46;18.70;99.90
9375;DHT22;4727;51.202;6.344;2022-09-09T16:36:15;18.80;99.90
9375;DHT22;4727;51.202;6.344;2022-09-09T16:38:42;18.50;99.90
9375;DHT22;4727;51.202;6.344;2022-09-09T16:41:09;18.50;99.90
9375;DHT22;4727;51.202;6.344;2022-09-09T16:43:36;18.50;99.90
9375;DHT22;4727;51.202;6.344;2022-09-09T16:46:03;18.40;99.90
9375;DHT22;4727;51.202;6.344;2022-09-09T16:48:33;18.30;99.90
9375;DHT22;4727;51.202;6.344;2022-09-09T16:51:13;18.40;99.90
9375;DHT22;4727;51.202;6.344;2022-09-09T16:53:40;18.40;99.90
9375;DHT22;4727;51.202;6.344;2022-09-09T16:56:09;18.50;99.90
9375;DHT22;4727;51.202;6.344;2022-09-09T16:58:35;18.50;99.90
9375;DHT22;4727;51.202;6.344;2022-09-09T17:01:05;18.50;99.90
9375;DHT22;4727;51.202;6.344;2022-09-09T17:03:31;18.60;99.90
9375;DHT22;4727;51.202;6.344;2022-09-09T17:05:58;18.60;99.90
9375;DHT22;4727;51.202;6.344;2022-09-09T17:08:30;18.60;99.90
9375;DHT22;4727;51.202;6.344;2022-09-09T17:10:57;18.60;99.90
9375;DHT22;4727;51.202;6.344;2022-09-09T17:13:24;18.60;99.90
9375;DHT22;4727;51.202;6.344;2022-09-09T17:15:50;18.50;99.90
9375;DHT22;4727;51.202;6.344;2022-09-09T17:18:16;18.40;99.90
9375;DHT22;4727;51.202;6.344;2022-09-09T17:20:42;18.40;99.90
9375;DHT22;4727;51.202;6.344;2022-09-09T17:23:11;18.30;99.90
9375;DHT22;4727;51.202;6.344;2022-09-09T17:25:37;18.30;99.90
9375;DHT22;4727;51.202;6.344;2022-09-09T17:28:03;18.30;99.90
9375;DHT22;4727;51.202;6.344;2022-09-09T17:30:38;18.30;99.90
9375;DHT22;4727;51.202;6.344;2022-09-09T17:33:04;18.20;99.90
9375;DHT22;4727;51.202;6.344;2022-09-09T17:35:32;18.20;99.90
9375;DHT22;4727;51.202;6.344;2022-09-09T17:37:58;18.20;99.90
9375;DHT22;4727;51.202;6.344;2022-09-09T17:40:24;18.20;99.90
9375;DHT22;4727;51.202;6.344;2022-09-09T17:42:50;18.10;99.90
9375;DHT22;4727;51.202;6.344;2022-09-09T17:45:15;18.00;99.90
9375;DHT22;4727;51.202;6.344;2022-09-09T17:47:41;17.90;99.90
9375;DHT22;4727;51.202;6.344;2022-09-09T17:50:09;17.90;99.90
9375;DHT22;4727;51.202;6.344;2022-09-09T17:52:36;17.90;99.90
9375;DHT22;4727;51.202;6.344;2022-09-09T17:55:03;17.80;99.90
9375;DHT22;4727;51.202;6.344;2022-09-09T17:57:29;17.70;25.60
9375;DHT22;4727;51.202;6.344;2022-09-09T17:59:55;17.60;99.90
9375;DHT22;4727;51.202;6.344;2022-09-09T18:02:20;17.60;72.60
9375;DHT22;4727;51.202;6.344;2022-09-09T18:04:46;17.50;99.90
9375;DHT22;4727;51.202;6.344;2022-09-09T18:07:12;17.50;99.90
9375;DHT22;4727;51.202;6.344;2022-09-09T18:09:39;17.40;99.90
9375;DHT22;4727;51.202;6.344;2022-09-09T18:12:05;17.40;98.40
9375;DHT22;4727;51.202;6.344;2022-09-09T18:14:32;17.40;99.90
9375;DHT22;4727;51.202;6.344;2022-09-09T18:16:59;17.40;99.90
9375;DHT22;4727;51.202;6.344;2022-09-09T18:19:27;17.30;99.90
9375;DHT22;4727;51.202;6.344;2022-09-09T18:21:55;17.40;99.90
9375;DHT22;4727;51.202;6.344;2022-09-09T18:24:21;17.30;99.90
9375;DHT22;4727;51.202;6.344;2022-09-09T18:26:48;17.30;99.90